createdAt,value
2022-08-05T00:02:12.242Z,23.14
2022-08-05T00:08:00.301Z,23.14
2022-08-05T00:13:18.718Z,23.10
2022-08-05T00:18:42.944Z,23.06
2022-08-05T00:24:11.038Z,22.98
2022-08-05T00:29:38.141Z,22.94
2022-08-05T00:35:06.153Z,22.91
2022-08-05T00:40:29.463Z,22.87
2022-08-05T00:45:50.436Z,22.83
2022-08-05T00:51:51.763Z,22.83
2022-08-05T00:56:55.784Z,22.76
2022-08-05T01:02:16.646Z,22.76
2022-08-05T01:07:37.667Z,22.68
2022-08-05T01:13:58.302Z,22.54
2022-08-05T01:19:56.002Z,22.46
2022-08-05T01:25:40.407Z,22.44
2022-08-05T01:31:28.115Z,22.38
2022-08-05T01:37:03.229Z,22.32
2022-08-05T01:42:26.947Z,22.26
2022-08-05T01:47:50.170Z,22.23
2022-08-05T01:53:17.345Z,22.18
2022-08-05T01:59:00.707Z,22.16
2022-08-05T02:04:24.229Z,22.12
2022-08-05T02:09:46.461Z,22.13
2022-08-05T02:15:13.068Z,22.06
2022-08-05T02:20:49.754Z,22.01
2022-08-05T02:26:17.081Z,21.93
2022-08-05T02:31:40.552Z,21.92
2022-08-05T02:37:04.473Z,21.82
2022-08-05T02:42:30.733Z,21.79
2022-08-05T02:48:06.623Z,21.75
2022-08-05T02:53:39.431Z,21.79
2022-08-05T02:59:02.129Z,21.84
2022-08-05T03:04:23.182Z,21.77
2022-08-05T03:09:51.595Z,21.70
2022-08-05T03:15:12.656Z,21.62
2022-08-05T03:20:33.155Z,21.53
2022-08-05T03:26:04.267Z,21.44
2022-08-05T03:31:57.194Z,21.32
2022-08-05T03:37:15.860Z,21.25
2022-08-05T03:42:41.853Z,21.11
2022-08-05T03:48:14.049Z,21.06
2022-08-05T03:55:06.890Z,21.00
2022-08-05T03:59:47.343Z,21.03
2022-08-05T04:05:15.931Z,21.08
2022-08-05T04:10:38.397Z,21.18
2022-08-05T04:16:04.250Z,21.41
2022-08-05T04:22:05.830Z,21.73
2022-08-05T04:27:06.301Z,22.17
2022-08-05T04:32:31.292Z,22.30
2022-08-05T04:38:02.540Z,22.72
2022-08-05T04:43:27.594Z,23.26
2022-08-05T04:48:48.084Z,23.82
2022-08-05T04:54:12.493Z,24.19
2022-08-05T04:59:38.391Z,24.55
2022-08-05T05:05:01.781Z,24.86
2022-08-05T05:10:24.135Z,25.01
2022-08-05T05:15:56.714Z,24.96
2022-08-05T05:21:22.829Z,24.53
2022-08-05T05:26:51.923Z,24.38
2022-08-05T05:32:15.746Z,24.49
2022-08-05T05:37:59.824Z,24.73
2022-08-05T05:43:56.488Z,25.00
2022-08-05T05:49:06.425Z,25.15
2022-08-05T05:54:35.456Z,25.35
2022-08-05T06:00:17.681Z,25.66
2022-08-05T06:05:38.612Z,25.82
2022-08-05T06:10:59.737Z,25.97
2022-08-05T06:16:28.359Z,26.14
2022-08-05T06:21:52.800Z,26.48
2022-08-05T06:28:08.734Z,26.57
2022-08-05T06:32:55.739Z,26.97
2022-08-05T06:38:17.265Z,27.24
2022-08-05T06:44:00.413Z,27.43
2022-08-05T06:50:01.813Z,27.95
2022-08-05T06:55:02.754Z,28.11
2022-08-05T07:00:24.688Z,28.10
2022-08-05T07:05:46.560Z,28.23
2022-08-05T07:11:07.287Z,28.52
2022-08-05T07:18:01.693Z,28.63
2022-08-05T07:22:32.952Z,28.83
2022-08-05T07:27:57.251Z,28.86
2022-08-05T07:33:36.526Z,28.79
2022-08-05T07:38:58.197Z,28.40
2022-08-05T07:44:19.681Z,28.27
2022-08-05T07:49:43.404Z,28.23
2022-08-05T07:55:15.870Z,28.31
2022-08-05T08:00:56.426Z,28.28
2022-08-05T08:06:17.805Z,28.36
2022-08-05T08:11:48.249Z,28.33
2022-08-05T08:17:16.401Z,28.52
2022-08-05T08:22:37.470Z,28.56
2022-08-05T08:27:59.597Z,28.82
2022-08-05T08:33:20.193Z,28.88
2022-08-05T08:38:41.028Z,28.99
2022-08-05T08:45:20.621Z,28.95
2022-08-05T08:50:14.290Z,28.93
2022-08-05T08:56:01.901Z,28.81
2022-08-05T09:01:15.609Z,28.65
2022-08-05T09:06:37.701Z,28.73
2022-08-05T09:12:14.343Z,28.73
2022-08-05T09:17:45.738Z,28.58
2022-08-05T09:23:18.562Z,28.69
2022-08-05T09:28:41.087Z,28.85
2022-08-05T09:34:05.127Z,28.92
2022-08-05T09:39:41.917Z,28.97
2022-08-05T09:46:02.694Z,29.02
2022-08-05T09:50:51.655Z,29.07
2022-08-05T09:56:13.390Z,29.24
2022-08-05T10:01:36.934Z,29.43
2022-08-05T10:07:01.546Z,29.60
2022-08-05T10:12:49.990Z,29.70
2022-08-05T10:18:22.534Z,29.64
2022-08-05T10:23:55.479Z,29.52
2022-08-05T10:29:22.002Z,29.69
2022-08-05T10:34:45.605Z,29.70
2022-08-05T10:40:19.548Z,29.84
2022-08-05T10:45:42.349Z,29.97
2022-08-05T10:51:22.489Z,30.01
2022-08-05T10:56:52.923Z,30.13
2022-08-05T11:02:37.656Z,30.20
2022-08-05T11:08:02.680Z,30.22
2022-08-05T11:13:54.854Z,30.35
2022-08-05T11:20:10.226Z,30.31
2022-08-05T11:26:04.815Z,30.30
2022-08-05T11:31:58.330Z,30.38
2022-08-05T11:38:28.524Z,30.51
2022-08-05T11:44:05.093Z,30.61
2022-08-05T11:49:09.971Z,30.64
2022-08-05T11:54:34.890Z,30.68
2022-08-05T11:59:55.871Z,30.66
2022-08-05T12:05:36.434Z,30.68
2022-08-05T12:11:05.479Z,30.78
2022-08-05T12:16:28.887Z,30.83
2022-08-05T12:21:51.113Z,30.83
2022-08-05T12:27:25.350Z,30.84
2022-08-05T12:32:53.663Z,30.91
2022-08-05T12:38:18.424Z,30.99
2022-08-05T12:43:55.072Z,31.06
2022-08-05T12:49:16.191Z,31.12
2022-08-05T12:54:41.208Z,31.10
2022-08-05T13:02:00.762Z,31.15
2022-08-05T13:05:42.958Z,31.18
2022-08-05T13:11:04.154Z,31.11
2022-08-05T13:16:27.715Z,31.09
2022-08-05T13:21:52.585Z,31.12
2022-08-05T13:27:37.489Z,31.13
2022-08-05T13:33:01.392Z,31.05
2022-08-05T13:38:31.056Z,31.01
2022-08-05T13:43:55.528Z,31.01
2022-08-05T13:49:15.945Z,31.07
2022-08-05T13:54:36.488Z,30.99
2022-08-05T14:00:01.858Z,31.01
2022-08-05T14:06:24.780Z,30.95
2022-08-05T14:11:20.489Z,30.90
2022-08-05T14:16:43.265Z,30.96
2022-08-05T14:22:12.124Z,31.07
2022-08-05T14:27:33.049Z,31.01
2022-08-05T14:32:54.182Z,30.97
2022-08-05T14:38:32.341Z,30.95
2022-08-05T14:44:02.551Z,30.86
2022-08-05T14:49:56.418Z,30.81
2022-08-05T14:55:14.003Z,30.86
2022-08-05T15:00:39.207Z,30.83
2022-08-05T15:06:20.064Z,30.74
2022-08-05T15:11:52.656Z,30.74
2022-08-05T15:17:45.602Z,30.69
2022-08-05T15:22:55.071Z,30.71
2022-08-05T15:28:16.739Z,30.73
2022-08-05T15:34:05.063Z,30.73
2022-08-05T15:41:01.993Z,30.80
2022-08-05T15:44:59.588Z,30.84
2022-08-05T15:50:20.929Z,30.61
2022-08-05T15:56:02.934Z,30.41
2022-08-05T16:01:29.456Z,30.35
2022-08-05T16:06:50.476Z,30.31
2022-08-05T16:12:11.462Z,30.27
2022-08-05T16:17:32.681Z,30.20
2022-08-05T16:22:53.342Z,30.19
2022-08-05T16:28:15.632Z,30.08
2022-08-05T16:33:41.334Z,29.88
2022-08-05T16:39:02.507Z,29.77
2022-08-05T16:44:25.769Z,29.67
2022-08-05T16:49:47.186Z,29.58
2022-08-05T16:55:14.345Z,29.59
2022-08-05T17:00:37.739Z,29.50
2022-08-05T17:06:00.516Z,29.39
2022-08-05T17:11:23.761Z,29.27
2022-08-05T17:16:46.270Z,29.26
2022-08-05T17:22:25.142Z,29.18
2022-08-05T17:27:46.596Z,29.10
2022-08-05T17:33:07.850Z,28.99
2022-08-05T17:38:29.424Z,28.90
2022-08-05T17:43:53.223Z,28.91
2022-08-05T17:49:14.266Z,28.85
2022-08-05T17:54:37.535Z,28.76
2022-08-05T18:00:03.078Z,28.55
2022-08-05T18:05:28.234Z,28.48
2022-08-05T18:10:56.203Z,28.32
2022-08-05T18:16:18.088Z,28.14
2022-08-05T18:22:09.353Z,27.77
2022-08-05T18:27:22.414Z,26.97
2022-08-05T18:32:43.062Z,26.22
2022-08-05T18:38:26.309Z,25.81
2022-08-05T18:43:48.687Z,25.68
2022-08-05T18:49:30.392Z,25.65
2022-08-05T18:54:51.511Z,25.69
2022-08-05T19:00:20.267Z,25.80
2022-08-05T19:06:11.658Z,25.85
2022-08-05T19:11:27.893Z,25.96
2022-08-05T19:16:49.649Z,25.78
2022-08-05T19:22:12.480Z,25.89
2022-08-05T19:27:39.061Z,25.99
2022-08-05T19:33:00.513Z,26.07
2022-08-05T19:38:26.432Z,26.06
2022-08-05T19:44:05.347Z,25.93
2022-08-05T19:54:27.225Z,26.04
2022-08-05T20:05:28.683Z,25.84
2022-08-05T20:11:04.278Z,25.90
2022-08-05T20:16:26.533Z,26.00
2022-08-05T20:21:48.605Z,25.91
2022-08-05T20:27:11.664Z,25.80
2022-08-05T20:32:32.381Z,25.87
2022-08-05T20:38:06.227Z,25.75
2022-08-05T20:43:57.571Z,25.54
2022-08-05T20:49:09.604Z,25.58
2022-08-05T20:54:42.819Z,25.42
2022-08-05T21:00:34.961Z,25.30
2022-08-05T21:05:57.269Z,25.27
2022-08-05T21:12:08.890Z,25.15
2022-08-05T21:17:00.851Z,25.15
2022-08-05T21:22:23.322Z,25.14
2022-08-05T21:27:47.525Z,25.05
2022-08-05T21:37:53.436Z,25.00
2022-08-05T21:43:17.848Z,24.93
2022-08-05T21:48:45.783Z,24.89
2022-08-05T21:54:06.913Z,24.85
2022-08-05T21:59:48.061Z,24.81
2022-08-05T22:05:12.444Z,24.77
2022-08-05T22:10:33.100Z,24.83
2022-08-05T22:16:02.729Z,24.77
2022-08-05T22:21:32.056Z,24.68
2022-08-05T22:27:13.961Z,24.49
2022-08-05T22:32:37.242Z,24.38
2022-08-05T22:38:01.001Z,24.21
2022-08-05T22:43:37.015Z,24.06
2022-08-05T22:48:58.856Z,23.97
2022-08-05T22:54:19.591Z,23.80
2022-08-05T22:59:51.836Z,23.56
2022-08-05T23:05:15.425Z,23.50
2022-08-05T23:10:35.887Z,23.28
2022-08-05T23:16:00.165Z,23.10
2022-08-05T23:21:21.248Z,23.03
2022-08-05T23:26:41.828Z,22.93
2022-08-05T23:32:05.470Z,22.79
2022-08-05T23:37:26.618Z,22.67
2022-08-05T23:42:54.789Z,22.57
2022-08-05T23:48:15.584Z,22.50
2022-08-05T23:53:46.942Z,22.39
2022-08-05T23:59:07.703Z,22.26
